Time;durP1;ratioP1;P1;durP2;ratioP2;P2;SDS_P1;SDS_P2;PMS_P1;PMS_P2;Temp;Humidity;BMP_temperature;BMP_pressure;BME280_temperature;BME280_humidity;BME280_pressure;Samples;Min_cycle;Max_cycle;Signal;HPM_P1;HPM_P2
2021/09/04 00:00:33;;;;;;;5.40;4.15;;;23.10;56.20;;;;;;5051361;28;20045;-56
2021/09/04 00:02:58;;;;;;;5.57;4.40;;;23.00;57.00;;;;;;5052959;28;20036;-56
2021/09/04 00:05:24;;;;;;;6.43;4.88;;;23.00;56.50;;;;;;5051919;28;20024;-58
2021/09/04 00:07:50;;;;;;;8.45;4.53;;;23.00;56.40;;;;;;5050564;28;20029;-56
2021/09/04 00:10:16;;;;;;;8.05;4.63;;;23.10;56.40;;;;;;5051669;28;20033;-56
2021/09/04 00:12:41;;;;;;;5.68;4.35;;;23.10;56.40;;;;;;5050539;28;20037;-56
2021/09/04 00:15:08;;;;;;;6.70;4.20;;;23.10;57.00;;;;;;5051926;28;20029;-56
2021/09/04 00:17:34;;;;;;;7.03;4.20;;;23.00;56.30;;;;;;5050597;28;20025;-56
2021/09/04 00:20:00;;;;;;;6.93;4.47;;;23.10;56.30;;;;;;5051838;28;20074;-57
2021/09/04 00:22:26;;;;;;;5.88;4.50;;;23.10;56.30;;;;;;5051448;28;20085;-59
2021/09/04 00:24:52;;;;;;;7.10;4.55;;;23.00;56.30;;;;;;5051659;28;20033;-56
2021/09/04 00:27:18;;;;;;;6.93;4.75;;;23.10;56.40;;;;;;5051590;28;20036;-57
2021/09/04 00:29:43;;;;;;;7.45;4.50;;;23.00;56.40;;;;;;5050712;28;20033;-57
2021/09/04 00:32:09;;;;;;;6.35;4.07;;;23.00;56.30;;;;;;5051088;28;20041;-58
2021/09/04 00:34:36;;;;;;;6.05;4.65;;;23.00;56.30;;;;;;5050895;28;20025;-57
2021/09/04 00:37:02;;;;;;;6.22;4.50;;;23.00;56.30;;;;;;5051535;28;20053;-56
2021/09/04 00:39:27;;;;;;;6.47;4.20;;;23.00;56.30;;;;;;5050796;28;20110;-60
2021/09/04 00:41:53;;;;;;;5.90;4.13;;;23.00;56.20;;;;;;5051475;28;20378;-56
2021/09/04 00:44:20;;;;;;;4.90;3.30;;;23.00;56.30;;;;;;5051180;28;20581;-56
2021/09/04 00:46:47;;;;;;;5.35;4.03;;;23.00;56.30;;;;;;5050387;28;20025;-56
2021/09/04 00:49:13;;;;;;;6.55;4.47;;;22.90;56.40;;;;;;5051022;28;20036;-57
2021/09/04 00:51:39;;;;;;;5.05;4.22;;;22.90;56.60;;;;;;5050513;28;20033;-56
2021/09/04 00:54:05;;;;;;;6.60;4.20;;;22.80;56.80;;;;;;5051590;28;20065;-57
2021/09/04 00:56:31;;;;;;;7.53;4.70;;;22.80;56.90;;;;;;5050380;28;20086;-56
2021/09/04 00:59:04;;;;;;;5.88;4.10;;;22.70;56.90;;;;;;5051349;28;20236;-56
2021/09/04 01:01:29;;;;;;;6.38;4.35;;;22.80;56.90;;;;;;5050676;28;20052;-59
2021/09/04 01:03:55;;;;;;;6.10;4.43;;;22.80;56.70;;;;;;5042978;28;20099;-56
2021/09/04 01:06:21;;;;;;;10.23;4.60;;;22.80;56.60;;;;;;5051125;28;20025;-56
2021/09/04 01:08:46;;;;;;;6.65;4.22;;;22.90;56.50;;;;;;5050343;28;20056;-57
2021/09/04 01:11:14;;;;;;;6.13;4.80;;;22.90;56.50;;;;;;5051157;28;20029;-55
2021/09/04 01:13:39;;;;;;;5.03;4.00;;;22.90;56.40;;;;;;5050599;28;20036;-56
2021/09/04 01:16:05;;;;;;;5.32;4.00;;;22.90;56.40;;;;;;5051407;28;20029;-56
2021/09/04 01:18:30;;;;;;;5.90;4.05;;;22.90;56.40;;;;;;5049930;28;20482;-58
2021/09/04 01:21:00;;;;;;;5.68;3.95;;;22.90;56.30;;;;;;5034183;28;20034;-59
2021/09/04 01:23:25;;;;;;;5.57;4.03;;;22.90;56.40;;;;;;5043154;28;20025;-56
2021/09/04 01:25:53;;;;;;;7.45;4.32;;;22.90;56.20;;;;;;5054100;28;20095;-57
2021/09/04 01:28:19;;;;;;;4.82;3.65;;;22.90;56.20;;;;;;5054785;28;20035;-56
2021/09/04 01:30:47;;;;;;;5.70;3.95;;;22.90;56.20;;;;;;5054337;28;20396;-55
2021/09/04 01:33:13;;;;;;;5.50;4.18;;;22.90;56.20;;;;;;5054974;28;20108;-57
2021/09/04 01:35:39;;;;;;;5.28;3.90;;;22.90;56.20;;;;;;5045952;28;20104;-56
2021/09/04 01:38:04;;;;;;;5.50;4.22;;;22.90;56.20;;;;;;5054577;28;20097;-57
2021/09/04 01:40:30;;;;;;;5.85;3.85;;;22.90;56.20;;;;;;5054263;28;20041;-60
2021/09/04 01:42:55;;;;;;;5.72;4.28;;;22.90;56.20;;;;;;5054421;28;20047;-56
2021/09/04 01:45:21;;;;;;;5.82;3.97;;;22.80;56.20;;;;;;5055003;28;20111;-57
2021/09/04 01:47:47;;;;;;;5.93;3.78;;;22.90;56.20;;;;;;5053503;28;20029;-56
2021/09/04 01:50:14;;;;;;;4.72;3.88;;;22.90;56.20;;;;;;5054699;28;20455;-56
2021/09/04 01:52:41;;;;;;;6.60;4.20;;;22.90;56.20;;;;;;5053967;28;20116;-55
2021/09/04 01:55:09;;;;;;;6.00;4.20;;;22.90;56.20;;;;;;5054244;28;20029;-56
2021/09/04 01:57:35;;;;;;;5.55;4.40;;;22.90;56.80;;;;;;5053316;28;20107;-58
2021/09/04 02:00:00;;;;;;;5.38;3.83;;;22.90;56.20;;;;;;5054755;28;20667;-56
2021/09/04 02:02:26;;;;;;;5.82;4.18;;;22.90;56.10;;;;;;5054195;28;20112;-57
2021/09/04 02:04:52;;;;;;;6.30;4.05;;;22.80;56.10;;;;;;5053311;28;20103;-58
2021/09/04 02:07:18;;;;;;;5.65;4.05;;;22.80;56.10;;;;;;5053890;28;20082;-56
2021/09/04 02:09:43;;;;;;;6.13;4.35;;;22.80;56.00;;;;;;5052627;28;20055;-56
2021/09/04 02:12:09;;;;;;;5.45;4.10;;;22.90;56.20;;;;;;5054229;28;20033;-56
2021/09/04 02:14:35;;;;;;;4.45;3.83;;;22.80;56.00;;;;;;5053475;28;20029;-56
2021/09/04 02:17:00;;;;;;;4.72;3.92;;;22.80;56.00;;;;;;5054240;28;20515;-57
2021/09/04 02:19:26;;;;;;;5.72;4.18;;;22.90;56.10;;;;;;5054039;28;20025;-59
2021/09/04 02:21:52;;;;;;;5.32;4.15;;;22.90;56.10;;;;;;5053232;28;20028;-56
2021/09/04 02:24:17;;;;;;;6.55;4.53;;;22.80;56.00;;;;;;5053868;28;20767;-57
2021/09/04 02:26:43;;;;;;;6.03;3.95;;;22.90;56.00;;;;;;5053848;28;20021;-56
2021/09/04 02:29:08;;;;;;;6.38;4.22;;;22.80;55.90;;;;;;5054119;28;20039;-56
2021/09/04 02:31:34;;;;;;;4.75;4.07;;;22.80;56.00;;;;;;5053349;28;20398;-57
2021/09/04 02:34:00;;;;;;;6.07;3.95;;;22.80;55.90;;;;;;5053404;28;20032;-56
2021/09/04 02:36:25;;;;;;;5.28;4.15;;;22.80;55.90;;;;;;5053707;28;20056;-57
2021/09/04 02:38:51;;;;;;;7.22;4.07;;;22.80;56.00;;;;;;5053078;28;20033;-55
2021/09/04 02:41:17;;;;;;;5.53;3.90;;;22.80;56.00;;;;;;5053617;28;20526;-57
2021/09/04 02:43:43;;;;;;;5.45;3.75;;;22.80;56.00;;;;;;5052983;28;20025;-57
2021/09/04 02:46:09;;;;;;;4.93;4.13;;;22.80;56.00;;;;;;5053639;28;20025;-57
2021/09/04 02:48:35;;;;;;;5.40;3.95;;;22.80;55.80;;;;;;5052634;28;20138;-57
2021/09/04 02:51:01;;;;;;;6.13;4.18;;;22.80;55.90;;;;;;5053185;28;20032;-56
2021/09/04 02:53:27;;;;;;;5.78;3.88;;;22.80;55.80;;;;;;5053177;28;20039;-56
2021/09/04 02:55:52;;;;;;;5.18;4.15;;;22.80;55.80;;;;;;5052865;28;20032;-56
2021/09/04 02:58:18;;;;;;;5.05;3.92;;;22.80;55.80;;;;;;5053441;28;20087;-55
2021/09/04 03:00:44;;;;;;;4.90;3.60;;;22.80;55.70;;;;;;5052501;28;20114;-56
2021/09/04 03:03:10;;;;;;;5.85;4.07;;;22.80;55.80;;;;;;5053038;28;20037;-56
2021/09/04 03:05:36;;;;;;;4.75;3.50;;;22.80;55.70;;;;;;5052058;28;20037;-58
2021/09/04 03:08:02;;;;;;;5.18;3.50;;;22.80;55.80;;;;;;5053236;28;20078;-56
2021/09/04 03:10:28;;;;;;;7.07;4.10;;;22.80;55.70;;;;;;5053086;28;20068;-56
2021/09/04 03:12:54;;;;;;;5.03;3.80;;;22.80;55.70;;;;;;5052445;28;20040;-58
2021/09/04 03:15:19;;;;;;;5.55;3.65;;;22.80;55.70;;;;;;5052905;28;20029;-55
2021/09/04 03:17:45;;;;;;;4.82;3.60;;;22.80;55.70;;;;;;5052253;28;20021;-57
2021/09/04 03:20:11;;;;;;;6.38;4.43;;;22.80;55.70;;;;;;5053445;28;20374;-57
2021/09/04 03:22:37;;;;;;;4.60;4.00;;;22.80;55.70;;;;;;5052267;28;20098;-59
2021/09/04 03:25:04;;;;;;;5.22;4.03;;;22.70;55.60;;;;;;5053107;28;20467;-57
2021/09/04 03:27:31;;;;;;;4.93;3.38;;;22.70;55.80;;;;;;5052155;28;20033;-59
2021/09/04 03:29:57;;;;;;;6.18;3.97;;;22.70;55.80;;;;;;5051054;28;20052;-59
2021/09/04 03:32:23;;;;;;;6.07;3.70;;;22.70;55.70;;;;;;5051425;28;20406;-54
2021/09/04 03:34:49;;;;;;;4.97;4.00;;;22.80;55.60;;;;;;5050487;28;20792;-57
2021/09/04 03:37:15;;;;;;;5.43;4.20;;;22.80;55.60;;;;;;5051227;28;20033;-56
2021/09/04 03:39:41;;;;;;;5.57;3.38;;;22.80;55.60;;;;;;5050338;28;20039;-55
2021/09/04 03:42:06;;;;;;;5.45;4.03;;;22.80;55.50;;;;;;5051273;28;20455;-56
2021/09/04 03:44:32;;;;;;;6.25;3.47;;;22.80;55.60;;;;;;5050801;28;20043;-59
2021/09/04 03:46:59;;;;;;;5.05;4.15;;;22.80;55.70;;;;;;5050153;28;20037;-56
2021/09/04 03:49:24;;;;;;;5.13;3.58;;;22.80;55.60;;;;;;5050862;28;20029;-55
2021/09/04 03:51:50;;;;;;;6.45;3.50;;;22.80;55.60;;;;;;5049978;28;20021;-56
2021/09/04 03:54:16;;;;;;;4.82;3.63;;;22.80;55.60;;;;;;5050729;28;20029;-56
2021/09/04 03:56:42;;;;;;;4.93;3.33;;;22.80;55.60;;;;;;5050360;28;20485;-56
2021/09/04 03:59:07;;;;;;;4.22;3.50;;;22.70;55.60;;;;;;5050575;28;20101;-56
2021/09/04 04:01:33;;;;;;;4.88;3.53;;;22.80;55.70;;;;;;5050485;28;20075;-60
2021/09/04 04:03:59;;;;;;;4.57;4.00;;;22.80;55.70;;;;;;5050874;28;20075;-57
2021/09/04 04:06:25;;;;;;;4.78;3.92;;;22.70;55.60;;;;;;5050544;28;20146;-56
2021/09/04 04:08:50;;;;;;;5.82;3.95;;;22.80;55.60;;;;;;5049748;28;20036;-58
2021/09/04 04:11:16;;;;;;;5.75;4.10;;;22.80;55.60;;;;;;5050251;28;20029;-59
2021/09/04 04:13:42;;;;;;;5.25;3.63;;;22.70;55.60;;;;;;5049777;28;20029;-56
2021/09/04 04:16:08;;;;;;;8.38;4.18;;;22.80;55.70;;;;;;5050500;28;20036;-57
2021/09/04 04:18:34;;;;;;;4.25;3.58;;;22.70;55.60;;;;;;5049596;28;20024;-59
2021/09/04 04:21:00;;;;;;;5.00;3.47;;;22.70;55.50;;;;;;5049294;28;20039;-57
2021/09/04 04:23:26;;;;;;;4.75;3.20;;;22.70;55.50;;;;;;5050419;28;20482;-62
2021/09/04 04:25:52;;;;;;;6.55;4.07;;;22.70;55.50;;;;;;5049594;28;20114;-58
2021/09/04 04:28:18;;;;;;;6.07;3.72;;;22.70;55.60;;;;;;5048052;28;20041;-56
2021/09/04 04:30:44;;;;;;;5.35;3.75;;;22.70;55.60;;;;;;5049828;28;20056;-58
2021/09/04 04:33:11;;;;;;;4.22;3.25;;;22.70;55.70;;;;;;5050534;28;20466;-56
2021/09/04 04:35:36;;;;;;;5.38;3.85;;;22.70;55.60;;;;;;5050888;28;20367;-57
2021/09/04 04:38:02;;;;;;;4.25;3.35;;;22.70;55.50;;;;;;5042023;28;20032;-57
2021/09/04 04:40:28;;;;;;;5.57;3.97;;;22.70;55.50;;;;;;5035424;28;20544;-57
2021/09/04 04:42:54;;;;;;;5.00;3.60;;;22.70;55.70;;;;;;5049379;28;20363;-56
2021/09/04 04:45:19;;;;;;;4.40;3.60;;;22.70;55.60;;;;;;5051022;28;20035;-57
2021/09/04 04:47:45;;;;;;;4.75;3.60;;;22.70;55.70;;;;;;5050575;28;20021;-57
2021/09/04 04:50:11;;;;;;;5.85;4.63;;;22.70;55.60;;;;;;5051333;28;20029;-57
2021/09/04 04:52:38;;;;;;;5.75;4.10;;;22.70;55.50;;;;;;5050757;28;20082;-58
2021/09/04 04:55:04;;;;;;;5.57;3.97;;;22.70;55.50;;;;;;5051276;28;20435;-56
2021/09/04 04:57:30;;;;;;;4.32;3.50;;;22.70;55.50;;;;;;5050791;28;20036;-59
2021/09/04 04:59:56;;;;;;;4.68;3.65;;;22.60;55.50;;;;;;5050256;28;20445;-57
2021/09/04 05:02:21;;;;;;;5.28;3.80;;;22.60;55.50;;;;;;5051747;28;20537;-57
2021/09/04 05:04:47;;;;;;;4.22;3.67;;;22.60;55.50;;;;;;5050372;28;20054;-57
2021/09/04 05:07:12;;;;;;;5.22;3.85;;;22.60;55.50;;;;;;5051115;28;20025;-55
2021/09/04 05:09:38;;;;;;;4.45;3.40;;;22.60;55.50;;;;;;5050176;28;20036;-58
2021/09/04 05:12:04;;;;;;;5.70;3.80;;;22.60;55.50;;;;;;5051127;28;20036;-56
2021/09/04 05:14:29;;;;;;;4.53;3.83;;;22.60;55.60;;;;;;5051169;28;20171;-57
2021/09/04 05:16:55;;;;;;;4.68;3.60;;;22.60;55.60;;;;;;5050281;28;20029;-58
2021/09/04 05:19:21;;;;;;;13.85;4.10;;;22.70;55.60;;;;;;5050943;28;20108;-56
2021/09/04 05:21:47;;;;;;;6.05;3.72;;;22.60;55.60;;;;;;5050486;28;20529;-56
2021/09/04 05:24:12;;;;;;;4.45;3.67;;;22.60;56.30;;;;;;5050719;28;20075;-57
2021/09/04 05:26:38;;;;;;;4.82;3.40;;;22.60;55.60;;;;;;5050387;28;20029;-56
2021/09/04 05:29:03;;;;;;;4.78;3.67;;;22.60;55.60;;;;;;5051243;28;20025;-57
2021/09/04 05:31:29;;;;;;;5.47;3.35;;;22.60;55.60;;;;;;5050851;28;20044;-57
2021/09/04 05:33:55;;;;;;;6.40;4.28;;;22.60;55.60;;;;;;5050443;28;20059;-57
2021/09/04 05:36:20;;;;;;;4.70;3.90;;;22.60;55.60;;;;;;5047061;28;20041;-57
2021/09/04 05:38:46;;;;;;;4.65;3.60;;;22.60;55.60;;;;;;5049530;28;20104;-57
2021/09/04 05:41:12;;;;;;;6.35;3.90;;;22.60;55.60;;;;;;5050805;28;20119;-56
2021/09/04 05:43:37;;;;;;;6.00;3.38;;;22.60;55.60;;;;;;5050095;28;20029;-59
2021/09/04 05:46:03;;;;;;;5.18;3.50;;;22.60;55.60;;;;;;5043314;28;20477;-58
2021/09/04 05:48:29;;;;;;;6.97;3.83;;;22.60;55.70;;;;;;5048372;28;20029;-58
2021/09/04 05:50:55;;;;;;;5.30;3.92;;;22.60;55.70;;;;;;5049824;28;20032;-55
2021/09/04 05:53:20;;;;;;;5.28;4.00;;;22.70;55.70;;;;;;5050148;28;20033;-56
2021/09/04 05:55:46;;;;;;;6.03;3.80;;;22.70;55.60;;;;;;5048218;28;20033;-56
2021/09/04 05:58:11;;;;;;;4.55;3.55;;;22.80;55.50;;;;;;5050006;28;20036;-56
2021/09/04 06:00:37;;;;;;;7.75;3.72;;;22.80;55.60;;;;;;5049590;28;20048;-57
2021/09/04 06:03:03;;;;;;;6.85;3.80;;;22.80;55.50;;;;;;5050833;28;20079;-53
2021/09/04 06:05:29;;;;;;;5.47;4.07;;;22.80;55.50;;;;;;5050089;28;20029;-56
2021/09/04 06:07:55;;;;;;;5.10;3.85;;;22.80;55.60;;;;;;5048427;28;20036;-56
2021/09/04 06:10:21;;;;;;;5.03;3.95;;;22.80;55.60;;;;;;5051440;28;20735;-56
2021/09/04 06:12:46;;;;;;;4.53;3.38;;;22.80;55.70;;;;;;5052591;28;20037;-60
2021/09/04 06:15:12;;;;;;;4.97;3.60;;;22.80;55.70;;;;;;5054350;28;20032;-55
2021/09/04 06:17:38;;;;;;;5.53;4.28;;;22.80;55.80;;;;;;5053462;28;20103;-58
2021/09/04 06:20:06;;;;;;;5.70;4.00;;;22.80;55.80;;;;;;5053453;28;20512;-55
2021/09/04 06:22:32;;;;;;;4.95;3.60;;;22.80;55.90;;;;;;5051705;28;20375;-56
2021/09/04 06:24:58;;;;;;;6.05;3.72;;;22.80;55.80;;;;;;5051816;28;20044;-54
2021/09/04 06:27:23;;;;;;;5.10;3.70;;;22.80;56.00;;;;;;5052855;28;20033;-55
2021/09/04 06:29:49;;;;;;;5.57;4.00;;;22.80;55.90;;;;;;5052762;28;20033;-54
2021/09/04 06:32:15;;;;;;;9.27;4.25;;;22.80;56.00;;;;;;5053955;28;20039;-55
2021/09/04 06:34:41;;;;;;;6.13;3.63;;;22.80;56.00;;;;;;5052735;28;20401;-55
2021/09/04 06:37:07;;;;;;;6.30;4.68;;;22.80;56.00;;;;;;5053519;28;20857;-56
2021/09/04 06:39:33;;;;;;;6.82;4.18;;;22.80;56.10;;;;;;5052269;28;20048;-60
2021/09/04 06:41:58;;;;;;;5.68;3.70;;;22.80;56.10;;;;;;5051383;28;20060;-52
2021/09/04 06:44:24;;;;;;;6.15;3.92;;;22.80;56.10;;;;;;5051755;28;20036;-54
2021/09/04 06:46:51;;;;;;;4.38;3.40;;;22.90;56.20;;;;;;5050907;28;20051;-57
2021/09/04 06:49:16;;;;;;;4.38;3.45;;;22.80;56.10;;;;;;5052091;28;20024;-56
2021/09/04 06:51:42;;;;;;;6.57;3.97;;;22.80;56.20;;;;;;5051812;28;20444;-55
2021/09/04 06:54:08;;;;;;;7.90;4.03;;;22.80;56.40;;;;;;5052586;28;20028;-54
2021/09/04 06:56:34;;;;;;;6.60;3.90;;;22.80;56.40;;;;;;5051974;28;20029;-59
2021/09/04 06:59:00;;;;;;;7.85;4.38;;;22.80;56.40;;;;;;5048525;28;20032;-53
2021/09/04 07:01:25;;;;;;;8.27;4.15;;;22.80;56.40;;;;;;5051185;28;20049;-55
2021/09/04 07:03:52;;;;;;;6.03;3.83;;;22.80;56.40;;;;;;5051567;28;20061;-57
2021/09/04 07:06:18;;;;;;;4.93;3.95;;;22.90;56.50;;;;;;5052416;28;20532;-57
2021/09/04 07:08:43;;;;;;;5.47;3.65;;;22.90;56.50;;;;;;5051423;28;20033;-58
2021/09/04 07:11:09;;;;;;;4.88;3.83;;;22.90;56.60;;;;;;5051760;28;20467;-57
2021/09/04 07:13:35;;;;;;;5.20;4.13;;;22.90;56.60;;;;;;5052005;28;20025;-60
2021/09/04 07:16:01;;;;;;;5.95;3.72;;;22.90;56.60;;;;;;5051991;28;20138;-58
2021/09/04 07:18:26;;;;;;;5.30;3.88;;;22.90;56.70;;;;;;5051437;28;20545;-59
2021/09/04 07:20:52;;;;;;;4.25;3.85;;;22.90;56.80;;;;;;5052900;28;20122;-58
2021/09/04 07:23:18;;;;;;;7.82;3.83;;;22.90;56.70;;;;;;5052336;28;20062;-56
2021/09/04 07:25:44;;;;;;;6.70;4.13;;;22.90;56.80;;;;;;5051005;28;20047;-57
2021/09/04 07:28:10;;;;;;;9.30;4.28;;;22.90;56.80;;;;;;5051709;28;20035;-56
2021/09/04 07:30:36;;;;;;;5.25;3.97;;;22.90;56.80;;;;;;5051587;28;20129;-60
2021/09/04 07:33:02;;;;;;;5.20;4.22;;;22.90;56.80;;;;;;5053055;28;20061;-58
2021/09/04 07:35:28;;;;;;;15.75;3.97;;;22.90;56.80;;;;;;5050240;28;20048;-59
2021/09/04 07:37:54;;;;;;;6.47;4.63;;;22.90;56.90;;;;;;5049582;28;20025;-58
2021/09/04 07:40:19;;;;;;;6.18;3.53;;;22.90;57.00;;;;;;5051075;28;20506;-60
2021/09/04 07:42:45;;;;;;;5.70;4.15;;;22.80;57.30;;;;;;5050130;28;20107;-58
2021/09/04 07:45:11;;;;;;;10.60;5.63;;;22.80;57.20;;;;;;5051365;28;20083;-53
2021/09/04 07:47:37;;;;;;;11.40;5.18;;;22.80;57.40;;;;;;5050455;28;20064;-55
2021/09/04 07:50:03;;;;;;;16.13;5.93;;;22.70;56.60;;;;;;5051445;28;20071;-60
2021/09/04 07:52:29;;;;;;;7.85;5.70;;;22.70;56.90;;;;;;5051183;28;20033;-59
2021/09/04 07:54:54;;;;;;;9.27;5.50;;;22.10;58.20;;;;;;5045621;28;20051;-59
2021/09/04 07:57:20;;;;;;;7.88;5.63;;;21.70;59.10;;;;;;5049948;28;20066;-60
2021/09/04 07:59:46;;;;;;;13.57;6.00;;;21.50;59.80;;;;;;5047179;28;20086;-52
2021/09/04 08:02:11;;;;;;;9.45;5.88;;;21.40;61.00;;;;;;5048152;28;20075;-59
2021/09/04 08:04:37;;;;;;;9.30;5.50;;;21.40;60.50;;;;;;5050570;28;20040;-58
2021/09/04 08:07:03;;;;;;;9.82;5.90;;;21.40;60.70;;;;;;5050958;28;20029;-59
2021/09/04 08:09:29;;;;;;;9.02;6.03;;;21.40;61.10;;;;;;5050485;28;20025;-59
2021/09/04 08:11:54;;;;;;;6.28;5.35;;;21.30;61.10;;;;;;5050392;28;20086;-59
2021/09/04 08:14:20;;;;;;;9.35;5.53;;;21.20;61.20;;;;;;5050623;28;20025;-59
2021/09/04 08:16:45;;;;;;;14.70;6.47;;;21.20;61.30;;;;;;5049870;28;20087;-59
2021/09/04 08:19:11;;;;;;;7.95;5.40;;;21.20;61.40;;;;;;5050291;28;20024;-59
2021/09/04 08:21:37;;;;;;;8.13;5.60;;;21.30;61.70;;;;;;5049727;28;20029;-59
2021/09/04 08:24:03;;;;;;;6.47;5.53;;;21.30;61.70;;;;;;5048978;28;20029;-59
2021/09/04 08:26:28;;;;;;;8.15;5.95;;;21.30;61.70;;;;;;5049223;28;20036;-59
2021/09/04 08:28:55;;;;;;;10.57;5.95;;;21.30;61.40;;;;;;5049370;28;20033;-59
2021/09/04 08:31:21;;;;;;;9.05;5.75;;;21.40;61.60;;;;;;5050690;28;20040;-59
2021/09/04 08:33:46;;;;;;;8.25;5.50;;;21.40;61.40;;;;;;5049567;28;20145;-59
2021/09/04 08:36:12;;;;;;;7.80;5.85;;;21.40;61.30;;;;;;5050179;28;20025;-59
2021/09/04 08:38:38;;;;;;;10.63;5.47;;;21.50;61.50;;;;;;5048937;28;20025;-59
2021/09/04 08:41:05;;;;;;;8.35;5.47;;;21.50;61.50;;;;;;5048372;28;20029;-59
2021/09/04 08:43:30;;;;;;;8.93;5.53;;;21.50;61.50;;;;;;5049601;28;20041;-59
2021/09/04 08:45:57;;;;;;;9.75;5.93;;;21.60;61.20;;;;;;5049537;28;20023;-59
2021/09/04 08:48:23;;;;;;;11.15;5.97;;;21.60;61.50;;;;;;5050206;28;20029;-59
2021/09/04 08:50:51;;;;;;;8.13;5.18;;;21.60;61.40;;;;;;5049693;28;20060;-59
2021/09/04 08:53:21;;;;;;;6.80;4.95;;;21.60;61.40;;;;;;5051230;28;20451;-59
2021/09/04 08:55:47;;;;;;;7.47;4.97;;;21.60;61.10;;;;;;5050067;28;20390;-59
2021/09/04 08:58:13;;;;;;;9.18;5.00;;;21.70;60.90;;;;;;5051122;28;20106;-59
2021/09/04 09:00:40;;;;;;;8.15;5.22;;;21.80;61.20;;;;;;5050532;28;20049;-58
2021/09/04 09:03:19;;;;;;;6.65;4.93;;;21.80;60.40;;;;;;5051170;28;20037;-59
2021/09/04 09:05:44;;;;;;;6.68;4.88;;;21.90;60.60;;;;;;5050930;28;20108;-59
2021/09/04 09:08:21;;;;;;;7.68;5.50;;;21.90;60.30;;;;;;5051288;28;20112;-57
2021/09/04 09:10:46;;;;;;;7.13;5.53;;;21.90;60.40;;;;;;5050301;28;20041;-59
2021/09/04 09:13:16;;;;;;;7.57;5.10;;;21.90;60.20;;;;;;5051055;28;20094;-59
2021/09/04 09:15:42;;;;;;;7.45;5.53;;;22.00;60.40;;;;;;5050344;28;20029;-59
2021/09/04 09:18:11;;;;;;;7.18;5.30;;;22.00;60.30;;;;;;5051324;28;20029;-58
2021/09/04 09:20:41;;;;;;;6.75;4.28;;;22.00;60.30;;;;;;5050403;28;20021;-58
2021/09/04 09:23:12;;;;;;;9.23;5.00;;;22.10;60.00;;;;;;5053571;28;20025;-59
2021/09/04 09:25:39;;;;;;;7.07;4.97;;;22.20;59.70;;;;;;5050343;28;20044;-58
2021/09/04 09:28:06;;;;;;;9.00;5.28;;;22.20;59.50;;;;;;5050934;28;20482;-59
2021/09/04 09:30:37;;;;;;;8.30;4.35;;;22.30;59.40;;;;;;5050916;28;20033;-58
2021/09/04 09:33:04;;;;;;;6.72;4.60;;;22.50;59.60;;;;;;5050069;28;20040;-58
2021/09/04 09:35:41;;;;;;;7.75;4.75;;;22.50;59.30;;;;;;5042816;28;20068;-59
2021/09/04 09:38:09;;;;;;;7.03;4.55;;;22.60;58.50;;;;;;5051183;28;20363;-59
2021/09/04 09:40:35;;;;;;;6.28;4.38;;;22.60;59.20;;;;;;5050755;28;20068;-59
2021/09/04 09:43:10;;;;;;;9.57;4.32;;;22.70;59.60;;;;;;5050127;28;20029;-59
2021/09/04 09:45:43;;;;;;;7.70;4.80;;;22.70;58.70;;;;;;5053077;28;20024;-60
2021/09/04 09:48:09;;;;;;;8.13;4.47;;;22.70;57.70;;;;;;5055318;28;20021;-57
2021/09/04 09:50:35;;;;;;;6.57;5.03;;;22.70;57.50;;;;;;5055611;28;20037;-60
2021/09/04 09:53:03;;;;;;;8.32;5.60;;;22.70;58.80;;;;;;5053898;28;20033;-58
2021/09/04 09:55:29;;;;;;;6.97;4.00;;;22.70;58.50;;;;;;5052122;28;20420;-57
2021/09/04 09:57:58;;;;;;;7.45;4.60;;;22.80;58.20;;;;;;5052146;28;20036;-57
2021/09/04 10:00:27;;;;;;;7.00;4.38;;;22.80;58.00;;;;;;5052482;28;20037;-57
2021/09/04 10:03:00;;;;;;;7.90;5.15;;;22.80;58.00;;;;;;5052151;28;20060;-57
2021/09/04 10:05:28;;;;;;;6.82;4.45;;;22.80;58.00;;;;;;5053036;28;20478;-57
2021/09/04 10:07:54;;;;;;;7.13;4.63;;;22.80;57.90;;;;;;5052246;28;20020;-57
2021/09/04 10:10:28;;;;;;;7.05;4.38;;;22.80;57.60;;;;;;5052820;28;20029;-59
2021/09/04 10:12:54;;;;;;;8.02;4.13;;;22.80;57.40;;;;;;5052016;28;20033;-60
2021/09/04 10:15:28;;;;;;;5.82;3.78;;;22.80;57.60;;;;;;5052659;28;20036;-57
2021/09/04 10:17:56;;;;;;;4.78;3.55;;;22.70;56.10;;;;;;5052150;28;20029;-57
2021/09/04 10:20:26;;;;;;;5.75;3.80;;;22.70;57.50;;;;;;5052557;28;20032;-58
2021/09/04 10:23:12;;;;;;;6.63;3.35;;;22.80;57.20;;;;;;5051918;28;20032;-58
2021/09/04 10:25:38;;;;;;;5.63;4.20;;;22.80;56.70;;;;;;5051201;28;20035;-58
2021/09/04 10:28:03;;;;;;;7.80;4.03;;;22.90;56.30;;;;;;5050803;28;20115;-60
2021/09/04 10:30:38;;;;;;;4.82;3.50;;;23.00;56.30;;;;;;5052343;28;20040;-59
2021/09/04 10:33:12;;;;;;;7.28;3.90;;;23.00;56.30;;;;;;5051173;28;20044;-58
2021/09/04 10:35:56;;;;;;;9.82;3.70;;;23.10;56.00;;;;;;5049667;28;20151;-58
2021/09/04 10:38:27;;;;;;;7.57;3.53;;;23.10;55.80;;;;;;5050305;28;20029;-57
2021/09/04 10:41:26;;;;;;;7.10;4.30;;;23.10;56.00;;;;;;5050554;28;20041;-58
2021/09/04 10:43:57;;;;;;;6.63;3.25;;;23.10;56.10;;;;;;5036081;28;20094;-59
2021/09/04 10:46:24;;;;;;;8.03;3.10;;;23.00;56.60;;;;;;5051384;28;20033;-59
2021/09/04 10:49:01;;;;;;;4.57;3.20;;;23.00;55.70;;;;;;5051397;28;20036;-59
2021/09/04 10:51:46;;;;;;;23.30;6.40;;;23.00;56.10;;;;;;5047458;28;20498;-58
2021/09/04 10:54:32;;;;;;;8.82;3.85;;;23.00;56.00;;;;;;5051842;28;20120;-58
2021/09/04 10:57:18;;;;;;;19.75;5.38;;;23.00;56.10;;;;;;5050682;28;20029;-55
2021/09/04 10:59:58;;;;;;;22.65;7.55;;;23.00;57.70;;;;;;5049323;28;20021;-57
2021/09/04 11:02:45;;;;;;;17.02;7.30;;;23.10;58.10;;;;;;5050244;28;20026;-58
2021/09/04 11:05:36;;;;;;;16.75;7.35;;;23.10;58.80;;;;;;5050830;28;20036;-58
2021/09/04 11:08:04;;;;;;;12.55;5.80;;;23.10;59.10;;;;;;5049210;28;20095;-57
2021/09/04 11:10:31;;;;;;;13.05;5.03;;;23.10;58.20;;;;;;5051761;28;20041;-56
2021/09/04 11:13:12;;;;;;;38.78;27.60;;;23.10;58.10;;;;;;5050361;28;20035;-57
2021/09/04 11:15:38;;;;;;;39.10;28.33;;;23.10;58.70;;;;;;5048935;28;20060;-58
2021/09/04 11:18:04;;;;;;;54.78;43.33;;;23.10;58.10;;;;;;5049950;28;20021;-54
2021/09/04 11:20:29;;;;;;;30.23;23.70;;;23.20;58.00;;;;;;5051371;28;20108;-56
2021/09/04 11:22:56;;;;;;;14.43;12.15;;;23.20;57.50;;;;;;5050895;28;20036;-56
2021/09/04 11:25:22;;;;;;;16.35;12.02;;;23.20;57.30;;;;;;5050161;28;20082;-56
2021/09/04 11:27:48;;;;;;;15.60;10.20;;;23.20;57.20;;;;;;5050824;28;20763;-56
2021/09/04 11:30:19;;;;;;;14.15;9.55;;;23.20;56.90;;;;;;5052274;28;20029;-55
2021/09/04 11:32:45;;;;;;;15.52;9.30;;;23.20;57.00;;;;;;5051871;28;20032;-56
2021/09/04 11:35:11;;;;;;;18.30;8.00;;;23.20;57.00;;;;;;5052392;28;20032;-55
2021/09/04 11:37:39;;;;;;;10.63;7.63;;;23.20;57.10;;;;;;5052656;28;20033;-58
2021/09/04 11:40:14;;;;;;;13.55;8.63;;;23.20;57.20;;;;;;5052087;28;20033;-57
2021/09/04 11:42:41;;;;;;;9.68;7.47;;;23.20;57.20;;;;;;5053311;28;20025;-54
2021/09/04 11:45:19;;;;;;;12.23;7.43;;;23.20;57.30;;;;;;5052680;28;20359;-56
2021/09/04 11:47:46;;;;;;;8.68;6.97;;;23.30;57.20;;;;;;5051771;28;20037;-54
2021/09/04 11:50:26;;;;;;;14.68;7.47;;;23.30;56.80;;;;;;5051996;28;20367;-55
2021/09/04 11:52:53;;;;;;;9.98;6.80;;;23.40;56.90;;;;;;5051416;28;20482;-56
2021/09/04 11:55:20;;;;;;;11.90;6.53;;;23.50;56.60;;;;;;5051941;28;20025;-55
2021/09/04 11:57:48;;;;;;;12.25;7.15;;;23.50;56.60;;;;;;5051430;28;20104;-57
2021/09/04 12:00:22;;;;;;;10.10;6.07;;;23.60;56.60;;;;;;5052328;28;20390;-56
2021/09/04 12:02:49;;;;;;;8.80;6.75;;;23.60;56.60;;;;;;5051080;28;20474;-56
2021/09/04 12:05:15;;;;;;;8.68;6.63;;;23.60;56.70;;;;;;5052017;28;20021;-55
2021/09/04 12:07:42;;;;;;;9.50;6.28;;;23.60;56.30;;;;;;5050404;28;20026;-56
2021/09/04 12:10:10;;;;;;;8.93;5.95;;;23.60;56.40;;;;;;5051938;28;20075;-56
2021/09/04 12:12:37;;;;;;;8.40;5.78;;;23.60;56.20;;;;;;5051860;28;20366;-56
2021/09/04 12:15:04;;;;;;;7.63;5.75;;;23.70;56.30;;;;;;5051316;28;20025;-54
2021/09/04 12:17:31;;;;;;;11.05;5.90;;;23.70;55.50;;;;;;5052331;28;20024;-54
2021/09/04 12:20:11;;;;;;;8.38;5.30;;;23.70;55.80;;;;;;5050852;28;20084;-57
2021/09/04 12:22:36;;;;;;;7.85;5.78;;;23.80;55.80;;;;;;5045508;28;20085;-55
2021/09/04 12:25:03;;;;;;;7.60;5.50;;;23.80;56.00;;;;;;5051201;28;20675;-56
2021/09/04 12:27:40;;;;;;;7.75;5.70;;;23.90;55.90;;;;;;5051858;28;20025;-56
2021/09/04 12:30:06;;;;;;;8.60;5.00;;;23.80;55.70;;;;;;5050767;28;20158;-54
2021/09/04 12:32:34;;;;;;;7.55;5.40;;;23.90;55.20;;;;;;5051708;28;20375;-53
2021/09/04 12:35:00;;;;;;;7.82;4.88;;;23.90;55.30;;;;;;5050680;28;20092;-56
2021/09/04 12:37:27;;;;;;;6.82;5.35;;;23.90;55.30;;;;;;5051002;28;20096;-54
2021/09/04 12:40:05;;;;;;;6.95;5.47;;;23.90;55.30;;;;;;5050547;28;20035;-55
2021/09/04 12:42:31;;;;;;;7.63;5.28;;;23.90;55.00;;;;;;5051355;28;20029;-57
2021/09/04 12:45:13;;;;;;;6.45;4.63;;;23.90;55.00;;;;;;5050523;28;20429;-56